Nearby METAR Reports

 

CYUL - Montreal/Dorval, Quebec, Canada
Distance from station: ENE 6km
Updated: 09/22/2017 23:00 EDT
Clear
Clear
 Wind from W
Wind: W 7 km/h
Temperature: 18°C
Dew Point: 14°C
Humidity: 78%
Barometer: 1017.9 hPa
Clouds: Clear
Visibility: 24 km
2017/09/23 03:00 CYUL 230300Z 26004KT 15SM SKC 18/14 A3006 RMK SLP181 DENSITY ALT 400FT
CWVQ - Ste Anne De Bell, Quebec, Canada
Distance from station: WSW 10km
Updated: 09/22/2017 23:00 EDT

 Wind from SSE
Wind: SSE 2 km/h
Temperature: 15°C
Dew Point: 14°C
Humidity: 94%
2017/09/23 03:00 CWVQ 230300Z AUTO 15001KT 15/14 RMK AO1 SLP181 T01470142 50002
 
CWTA - Mc Tavish (aut), Quebec, Canada
Distance from station: ENE 18km
Updated: 09/22/2017 23:00 EDT

 Wind from SW
Wind: SW 4 km/h
Temperature: 20°C
Dew Point: 12°C
Humidity: 60%
2017/09/23 03:00 CWTA 230300Z AUTO 23002KT 20/12 RMK AO1 SLP181 T01990123 50002
CYMX - Montreal/Mirabel, Quebec, Canada
Distance from station: NW 29km
Updated: 09/22/2017 23:00 EDT
Few Clouds
Few Clouds
 Wind from varies
Wind: varies 4 km/h
Temperature: 14°C
Dew Point: 13°C
Humidity: 94%
Barometer: 1018.6 hPa
Clouds: Few Clouds
Visibility: 40 km
Cloud details: Few Clouds 7620 m
2017/09/23 03:00 CYMX 230300Z VRB02KT 25SM FEW250 14/13 A3008 RMK CI2 SLP190
 
CYHU - Saint Hubert Arp, Quebec, Canada
Distance from station: ENE 31km
Updated: 09/22/2017 23:00 EDT
Clear
Clear
 Wind from calm
Wind: Calm
Temperature: 16°C
Dew Point: 13°C
Humidity: 83%
Barometer: 1017.9 hPa
Clouds: Clear
Visibility: 14 km
2017/09/23 03:00 CYHU 230300Z AUTO 00000KT 9SM CLR 16/13 A3006 RMK SLP180 DENSITY ALT 100FT
CWIT - St Clothilde (a, Quebec, Canada
Distance from station: SSE 33km
Updated: 09/22/2017 23:00 EDT

 Wind from calm
Wind: Calm
Temperature: 12°C
Dew Point: 12°C
Humidity: 100%
2017/09/23 03:00 CWIT 230300Z AUTO 00000KT 12/12 RMK AO1 SLP180 T01220116 55000
 
CWIZ - L'acadie, Quebec, Canada
Distance from station: ESE 41km
Updated: 09/22/2017 23:00 EDT

 Wind from S
Wind: S 4 km/h
Temperature: 13°C
Dew Point: 12°C
Humidity: 94%
2017/09/23 03:00 CWIZ 230300Z AUTO 17002KT 13/12 RMK AO1 T01330119
CWHM - Varennes, Quebec, Canada
Distance from station: NE 45km
Updated: 10/25/2016 10:00 EDT
NOT Current

 Wind from W
Wind: W 19 km/h, Gust: 28 km/h
Temperature: 4°C
Wind Chill: 0°C
Dew Point: -2°C
Humidity: 65%
2016/10/25 14:00 CWHM 251400Z AUTO 28010G15KT 04/M02 RMK AO1 PK WND 28018/1302 T00391017
 
CWEW - L'assomption, Quebec, Canada
Distance from station: NE 50km
Updated: 09/22/2017 23:00 EDT

 Wind from calm
Wind: Calm
Temperature: 15°C
2017/09/23 03:00 CWEW 230300Z AUTO 00000KT 15/ RMK AO1 SLP185 T0147 50003
CWBZ - St Anicet, Quebec, Canada
Distance from station: SW 52km
Updated: 09/22/2017 23:00 EDT

 Wind from S
Wind: S 2 km/h
Temperature: 13°C
Dew Point: 13°C
Humidity: 100%
2017/09/23 03:00 CWBZ 230300Z AUTO 18001KT 13/13 RMK AO1 SLP183 T01310127 53003
 
KFSO - Highgate, Vermont, USA
Distance from station: SE 79km
Updated: 09/22/2017 23:55 EDT
Clear
Clear
 Wind from calm
Wind: Calm
Temperature: 13°C
Dew Point: 12°C
Humidity: 94%
Barometer: 1018.6 hPa
Clouds: Clear
Visibility: 16 km
2017/09/23 03:55 KFSO 230355Z AUTO 00000KT 10SM CLR 13/12 A3008 RMK AO2 T01250116
CMGB - Granby, Quebec, Canada
Distance from station: E 81km
Updated: 09/22/2017 23:45 EDT

 Wind from calm
Wind: Calm
Temperature: 12°C
Dew Point: 11°C
Humidity: 94%
2017/09/23 03:45 CMGB 230345Z AUTO 00000KT 12/11 RMK AO1 SLP181 T01230113 53002
 
CWJT - St Jovite (autob, Quebec, Canada
Distance from station: NW 88km
Updated: 09/22/2017 23:00 EDT

 Wind from ENE
Wind: ENE 2 km/h
Temperature: 15°C
Dew Point: 14°C
Humidity: 94%
2017/09/23 03:00 CWJT 230300Z AUTO 06001KT 15/14 RMK AO1 SLP185 T01470138 50002
CWFQ - Frelighsburg, Quebec, Canada
Distance from station: ESE 90km
Updated: 09/22/2017 23:00 EDT

 Wind from S
Wind: S 7 km/h
Temperature: 17°C
Dew Point: 10°C
Humidity: 64%
2017/09/23 03:00 CWFQ 230300Z AUTO 17004KT 17/10 RMK AO1 SLP185 T01720095 53001
 
KPBG - Plattsburgh Afb, New York, USA
Distance from station: SSE 93km
Updated: 09/22/2017 23:53 EDT
Clear
Clear
 Wind from calm
Wind: Calm
Temperature: 13°C
Dew Point: 11°C
Humidity: 88%
Barometer: 1018.6 hPa
Clouds: Clear
Visibility: 16 km
2017/09/23 03:53 KPBG 230353Z AUTO 00000KT 10SM CLR 13/11 A3008 RMK AO2 SLP184 T01280111
KMSS - Massena, New York, USA
Distance from station: SW 100km
Updated: 09/22/2017 23:53 EDT
Clear
Clear
 Wind from calm
Wind: Calm
Temperature: 13°C
Dew Point: 12°C
Humidity: 94%
Barometer: 1019 hPa
Clouds: Clear
Visibility: 16 km
2017/09/23 03:53 KMSS 230353Z AUTO 00000KT 10SM CLR 13/12 A3009 RMK AO2 SLP188 T01280122
 
CWBS - Lac St Pierre (a, Quebec, Canada
Distance from station: NE 106km
Updated: 09/22/2017 23:00 EDT

 Wind from W
Wind: W 9 km/h
Temperature: 20°C
Dew Point: 16°C
Humidity: 78%
2017/09/23 03:00 CWBS 230300Z AUTO 28005KT 20/16 RMK AO1 T01980155
KBTV - Burlington, Vermont, USA
Distance from station: SSE 121km
Updated: 09/22/2017 23:54 EDT
Clear
Clear
 Wind from calm
Wind: Calm
Temperature: 15°C
Dew Point: 13°C
Humidity: 88%
Barometer: 1018.6 hPa
Clouds: Clear
Visibility: 16 km
2017/09/23 03:54 KBTV 230354Z 00000KT 10SM CLR 15/13 A3008 RMK AO2 SLP187 "LAST" T01500128
 
KSLK - Saranac Lake, New York, USA
Distance from station: SSW 121km
Updated: 09/22/2017 23:51 EDT
Clear
Clear
 Wind from calm
Wind: Calm
Temperature: 8°C
Dew Point: 8°C
Humidity: 100%
Barometer: 1020 hPa
Clouds: Clear
Visibility: 16 km
2017/09/23 03:51 KSLK 230351Z AUTO 00000KT 10SM CLR 08/08 A3012 RMK AO2 SLP200 T00780078
CWNQ - Nicolet (autob), Quebec, Canada
Distance from station: NE 123km
Updated: 09/22/2017 23:00 EDT

 Wind from E
Wind: E 2 km/h
Temperature: 14°C
Dew Point: 13°C
Humidity: 94%
2017/09/23 03:00 CWNQ 230300Z AUTO 08001KT 14/13 RMK AO1 SLP174 T01400129 50000
 
KMWN - Mount Washington, New Hampshire, USA
Distance from station: SE 237km
Updated: 09/22/2017 23:51 EDT

 Wind from NE
Wind: NE 15 km/h
Visibility: 144 km
2017/09/23 03:51 KMWN 230351Z 05008KT 90SM SCT/// SKC 13/10 RMK TPS LWR SCT055
CYVR - Vancouver Intl A, British Columbia, Canada
Distance from station: NW 3676km
Updated: 09/22/2017 23:00 EDT
Mostly cloudy
Mostly cloudy
 Wind from NNE
Wind: NNE 7 km/h
Temperature: 14°C
Dew Point: 11°C
Humidity: 82%
Barometer: 1015.9 hPa
Clouds: Mostly cloudy
Visibility: 32 km
Cloud details: Partly cloudy 3353 m
Mostly cloudy 4267 m
Mostly cloudy 7010 m
2017/09/23 03:00 CYVR 230300Z 03004KT 20SM SCT110 BKN140 BKN230 14/11 A3000 RMK AC4AC2CI1 SLP159